Terminal Aerodrome Forecast
Issued by NWS

Home | Current Version | Previous Version | Text Only | Print | Product List | Glossary On
Versions: 1 2 3 4 5 6 7 8 9 10 11 12 13 14 15 16 17 18 19 20 21 22 23 24 25 26 27 28 29 30 31 32 33 34 35 36 37 38 39 40 41 42 43 44 45 46 47 48 49 50
000
FTUS41 KBOX 230550
TAFACK
TAF
KACK 230550Z 2306/2406 23010KT P6SM FEW250
     FM231200 22013KT P6SM BKN040
     FM231500 22014KT P6SM SCT250
     FM240200 21012KT 2SM -SHRA BR BKN020 OVC050=

USA.gov is the U.S. government's official web portal to all federal, state and local government web resources and services.